THY70F LTFM-LSZH
Flight info
| Callsign | THY70F |
|---|---|
| Flight time | 2h 8m |
| Altitude | 32000 |
| Route | VADEN N618 BAKLO DCT XANEX DCT UTEKA DCT LAKIK DCT BEDOX DCT ERKIR DCT KPT L856 NEGRA |
| Aircraft | B38M/M-SDE1FGHILORVWXY/HB1 |
Departure
| Time | 2026-02-20 06:20 |
|---|---|
| Airport | İstanbul Airport (LTFM) |
Arrival
| Time | 2026-02-20 08:28 |
|---|---|
| Airport | Zürich Airport (LSZH) |
| Time | Latitude | Longitude | Altitude | Speed | Heading |
|---|---|---|---|---|---|
| 2026-02-20 05:57 | 41.26422 | 28.74121 | 364 ft | 0 kts | 100° |
| 2026-02-20 06:09 | 41.26422 | 28.74120 | 336 ft | 1 kts | 100° |
| 2026-02-20 06:09 | 41.26425 | 28.74099 | 335 ft | 3 kts | 102° |
| 2026-02-20 06:09 | 41.26429 | 28.74073 | 334 ft | 3 kts | 101° |
| 2026-02-20 06:10 | 41.26433 | 28.74047 | 336 ft | 3 kts | 100° |
| 2026-02-20 06:10 | 41.26433 | 28.74025 | 336 ft | 3 kts | 56° |
| 2026-02-20 06:10 | 41.26421 | 28.74008 | 331 ft | 3 kts | 53° |
| 2026-02-20 06:10 | 41.26412 | 28.73985 | 331 ft | 3 kts | 83° |
| 2026-02-20 06:11 | 41.26414 | 28.73960 | 331 ft | 3 kts | 110° |
| 2026-02-20 06:11 | 41.26418 | 28.73946 | 331 ft | 0 kts | 117° |
| 2026-02-20 06:12 | 41.26416 | 28.73955 | 331 ft | 3 kts | 110° |
| 2026-02-20 06:13 | 41.26423 | 28.74007 | 331 ft | 10 kts | 41° |
| 2026-02-20 06:13 | 41.26530 | 28.74025 | 333 ft | 21 kts | 358° |
| 2026-02-20 06:13 | 41.26706 | 28.74020 | 335 ft | 28 kts | 0° |
| 2026-02-20 06:13 | 41.26913 | 28.74018 | 335 ft | 31 kts | 357° |
| 2026-02-20 06:14 | 41.27109 | 28.74000 | 334 ft | 27 kts | 333° |
| 2026-02-20 06:14 | 41.27138 | 28.73785 | 336 ft | 25 kts | 269° |
| 2026-02-20 06:14 | 41.27136 | 28.73547 | 336 ft | 26 kts | 270° |
| 2026-02-20 06:14 | 41.27131 | 28.73301 | 333 ft | 27 kts | 269° |
| 2026-02-20 06:15 | 41.27165 | 28.73103 | 335 ft | 17 kts | 339° |
| 2026-02-20 06:15 | 41.27282 | 28.73097 | 332 ft | 18 kts | 358° |
| 2026-02-20 06:15 | 41.27424 | 28.73091 | 336 ft | 23 kts | 0° |
| 2026-02-20 06:15 | 41.27586 | 28.73037 | 333 ft | 27 kts | 302° |
| 2026-02-20 06:16 | 41.27769 | 28.72968 | 333 ft | 31 kts | 359° |
| 2026-02-20 06:16 | 41.28007 | 28.72959 | 332 ft | 37 kts | 358° |
| 2026-02-20 06:16 | 41.28277 | 28.72957 | 334 ft | 40 kts | 359° |
| 2026-02-20 06:16 | 41.28558 | 28.72949 | 333 ft | 41 kts | 359° |
| 2026-02-20 06:17 | 41.28842 | 28.72940 | 335 ft | 41 kts | 360° |
| 2026-02-20 06:17 | 41.29070 | 28.72938 | 336 ft | 32 kts | 359° |
| 2026-02-20 06:17 | 41.29296 | 28.72931 | 333 ft | 33 kts | 359° |
| 2026-02-20 06:17 | 41.29527 | 28.72926 | 336 ft | 34 kts | 1° |
| 2026-02-20 06:18 | 41.29764 | 28.72920 | 335 ft | 34 kts | 358° |
| 2026-02-20 06:18 | 41.29881 | 28.72859 | 334 ft | 12 kts | 273° |
| 2026-02-20 06:18 | 41.29878 | 28.72731 | 336 ft | 17 kts | 268° |
| 2026-02-20 06:18 | 41.29871 | 28.72529 | 337 ft | 26 kts | 269° |
| 2026-02-20 06:19 | 41.29822 | 28.72442 | 333 ft | 0 kts | 179° |
| 2026-02-20 06:19 | 41.29797 | 28.72442 | 335 ft | 20 kts | 179° |
| 2026-02-20 06:19 | 41.29403 | 28.72455 | 333 ft | 91 kts | 179° |
| 2026-02-20 06:19 | 41.28559 | 28.72491 | 338 ft | 148 kts | 172° |
| 2026-02-20 06:20 | 41.27451 | 28.72579 | 739 ft | 165 kts | 177° |
| 2026-02-20 06:20 | 41.26276 | 28.72584 | 1542 ft | 163 kts | 183° |
| 2026-02-20 06:20 | 41.25170 | 28.72585 | 2398 ft | 166 kts | 185° |
| 2026-02-20 06:20 | 41.23911 | 28.72635 | 2761 ft | 194 kts | 184° |
| 2026-02-20 06:21 | 41.22476 | 28.72703 | 3205 ft | 218 kts | 183° |
| 2026-02-20 06:21 | 41.20900 | 28.72749 | 3776 ft | 233 kts | 189° |
| 2026-02-20 06:21 | 41.19393 | 28.71989 | 4457 ft | 234 kts | 221° |
| 2026-02-20 06:21 | 41.18437 | 28.70259 | 5335 ft | 240 kts | 247° |
| 2026-02-20 06:22 | 41.18165 | 28.68036 | 6127 ft | 248 kts | 266° |
| 2026-02-20 06:22 | 41.18132 | 28.65761 | 6946 ft | 253 kts | 265° |
| 2026-02-20 06:22 | 41.18090 | 28.63381 | 7771 ft | 256 kts | 265° |
| 2026-02-20 06:22 | 41.18054 | 28.61004 | 8585 ft | 259 kts | 266° |
| 2026-02-20 06:23 | 41.18370 | 28.58632 | 9412 ft | 269 kts | 289° |
| 2026-02-20 06:23 | 41.19514 | 28.56605 | 10206 ft | 285 kts | 315° |
| 2026-02-20 06:23 | 41.21304 | 28.55349 | 10676 ft | 312 kts | 340° |
| 2026-02-20 06:23 | 41.23570 | 28.55167 | 10997 ft | 339 kts | 358° |
| 2026-02-20 06:24 | 41.25989 | 28.55207 | 11253 ft | 358 kts | 355° |
| 2026-02-20 06:24 | 41.28548 | 28.55185 | 11419 ft | 378 kts | 355° |
| 2026-02-20 06:24 | 41.31242 | 28.55286 | 11597 ft | 397 kts | 3° |
| 2026-02-20 06:24 | 41.34021 | 28.55730 | 11998 ft | 406 kts | 3° |
| 2026-02-20 06:25 | 41.36828 | 28.56145 | 12663 ft | 407 kts | 2° |
| 2026-02-20 06:25 | 41.39658 | 28.56543 | 13239 ft | 411 kts | 2° |
| 2026-02-20 06:25 | 41.42516 | 28.56936 | 13857 ft | 414 kts | 2° |
| 2026-02-20 06:25 | 41.45389 | 28.57064 | 14376 ft | 414 kts | 355° |
| 2026-02-20 06:26 | 41.48283 | 28.57028 | 14918 ft | 417 kts | 355° |
| 2026-02-20 06:26 | 41.51197 | 28.56978 | 15444 ft | 421 kts | 355° |
| 2026-02-20 06:26 | 41.54140 | 28.56921 | 15985 ft | 424 kts | 354° |
| 2026-02-20 06:26 | 41.57095 | 28.56861 | 16532 ft | 426 kts | 354° |
| 2026-02-20 06:27 | 41.60074 | 28.56800 | 17038 ft | 430 kts | 354° |
| 2026-02-20 06:27 | 41.63074 | 28.56739 | 17540 ft | 433 kts | 354° |
| 2026-02-20 06:27 | 41.66095 | 28.56654 | 18028 ft | 434 kts | 351° |
| 2026-02-20 06:27 | 41.69024 | 28.55864 | 18460 ft | 427 kts | 334° |
| 2026-02-20 06:28 | 41.71633 | 28.54062 | 18767 ft | 420 kts | 318° |
| 2026-02-20 06:28 | 41.73730 | 28.51405 | 19151 ft | 413 kts | 303° |
| 2026-02-20 06:28 | 41.75254 | 28.48169 | 19468 ft | 410 kts | 291° |
| 2026-02-20 06:28 | 41.76182 | 28.44586 | 19839 ft | 407 kts | 279° |
| 2026-02-20 06:29 | 41.76680 | 28.40853 | 20196 ft | 408 kts | 275° |
| 2026-02-20 06:29 | 41.77047 | 28.37078 | 20581 ft | 410 kts | 273° |
| 2026-02-20 06:29 | 41.77336 | 28.33270 | 20954 ft | 412 kts | 272° |
| 2026-02-20 06:29 | 41.77582 | 28.29435 | 21326 ft | 414 kts | 271° |
| 2026-02-20 06:30 | 41.77809 | 28.25576 | 21700 ft | 417 kts | 271° |
| 2026-02-20 06:30 | 41.78072 | 28.21693 | 22075 ft | 421 kts | 276° |
| 2026-02-20 06:30 | 41.78993 | 28.17933 | 22494 ft | 431 kts | 292° |
| 2026-02-20 06:30 | 41.80464 | 28.14407 | 22874 ft | 436 kts | 295° |
| 2026-02-20 06:31 | 41.81990 | 28.10878 | 23245 ft | 439 kts | 295° |
| 2026-02-20 06:31 | 41.83542 | 28.07337 | 23629 ft | 442 kts | 296° |
| 2026-02-20 06:31 | 41.85014 | 28.03724 | 23942 ft | 440 kts | 287° |
| 2026-02-20 06:31 | 41.85769 | 27.99793 | 24270 ft | 433 kts | 273° |
| 2026-02-20 06:32 | 41.86027 | 27.95759 | 24563 ft | 435 kts | 271° |
| 2026-02-20 06:32 | 41.86227 | 27.91693 | 24910 ft | 437 kts | 270° |
| 2026-02-20 06:32 | 41.86393 | 27.87623 | 25262 ft | 438 kts | 269° |
| 2026-02-20 06:32 | 41.86540 | 27.83531 | 25597 ft | 440 kts | 269° |
| 2026-02-20 06:33 | 41.86629 | 27.80812 | 25833 ft | 441 kts | 269° |
| 2026-02-20 06:33 | 41.86688 | 27.78978 | 25982 ft | 442 kts | 269° |
| 2026-02-20 06:33 | 41.86816 | 27.74857 | 26355 ft | 442 kts | 269° |
| 2026-02-20 06:33 | 41.86942 | 27.70743 | 26781 ft | 441 kts | 269° |
| 2026-02-20 06:34 | 41.87066 | 27.66635 | 27226 ft | 440 kts | 269° |
| 2026-02-20 06:34 | 41.87188 | 27.62544 | 27688 ft | 438 kts | 268° |
| 2026-02-20 06:34 | 41.87307 | 27.58475 | 28153 ft | 436 kts | 268° |
| 2026-02-20 06:34 | 41.87436 | 27.54410 | 28618 ft | 435 kts | 270° |
| 2026-02-20 06:35 | 41.88055 | 27.50412 | 29071 ft | 443 kts | 285° |
| 2026-02-20 06:35 | 41.89485 | 27.46724 | 29550 ft | 452 kts | 300° |
| 2026-02-20 06:35 | 41.91525 | 27.43473 | 30013 ft | 457 kts | 306° |
| 2026-02-20 06:35 | 41.93658 | 27.40302 | 30381 ft | 457 kts | 306° |
| 2026-02-20 06:36 | 41.95802 | 27.37160 | 30742 ft | 455 kts | 306° |
| 2026-02-20 06:36 | 41.97949 | 27.34044 | 31115 ft | 454 kts | 306° |
| 2026-02-20 06:36 | 42.00095 | 27.30942 | 31473 ft | 453 kts | 306° |
| 2026-02-20 06:36 | 42.02238 | 27.27849 | 31843 ft | 451 kts | 306° |
| 2026-02-20 06:37 | 42.04374 | 27.24763 | 32075 ft | 451 kts | 306° |
| 2026-02-20 06:37 | 42.06496 | 27.21670 | 32074 ft | 448 kts | 304° |
| 2026-02-20 06:37 | 42.10633 | 27.15448 | 32068 ft | 446 kts | 304° |
| 2026-02-20 06:38 | 42.14774 | 27.09225 | 32062 ft | 446 kts | 304° |
| 2026-02-20 06:38 | 42.18914 | 27.02995 | 32057 ft | 446 kts | 304° |
| 2026-02-20 06:39 | 42.23048 | 26.96759 | 32076 ft | 446 kts | 304° |
| 2026-02-20 06:39 | 42.27182 | 26.90511 | 32043 ft | 446 kts | 304° |
| 2026-02-20 06:40 | 42.31315 | 26.84251 | 32044 ft | 446 kts | 304° |
| 2026-02-20 06:40 | 42.35444 | 26.77984 | 32040 ft | 446 kts | 304° |
| 2026-02-20 06:41 | 42.39560 | 26.71722 | 32054 ft | 446 kts | 304° |
| 2026-02-20 06:41 | 42.43679 | 26.65443 | 32040 ft | 446 kts | 304° |
| 2026-02-20 06:42 | 42.47770 | 26.59193 | 32039 ft | 446 kts | 303° |
| 2026-02-20 06:42 | 42.51882 | 26.52900 | 32043 ft | 446 kts | 303° |
| 2026-02-20 06:43 | 42.55421 | 26.46190 | 32065 ft | 430 kts | 290° |
| 2026-02-20 06:43 | 42.58311 | 26.39006 | 32041 ft | 433 kts | 291° |
| 2026-02-20 06:44 | 42.61172 | 26.31794 | 32039 ft | 434 kts | 290° |
| 2026-02-20 06:44 | 42.64015 | 26.24579 | 32015 ft | 433 kts | 290° |
| 2026-02-20 06:45 | 42.68284 | 26.13710 | 32013 ft | 436 kts | 290° |
| 2026-02-20 06:46 | 42.71131 | 26.06439 | 31988 ft | 435 kts | 290° |
| 2026-02-20 06:46 | 42.73965 | 25.99180 | 31978 ft | 434 kts | 290° |
| 2026-02-20 06:47 | 42.76797 | 25.91906 | 32366 ft | 435 kts | 290° |
| 2026-02-20 06:47 | 42.77555 | 25.89959 | 32543 ft | 435 kts | 290° |
| 2026-02-20 06:47 | 42.78969 | 25.86320 | 32873 ft | 434 kts | 290° |
| 2026-02-20 06:47 | 42.80374 | 25.82698 | 33203 ft | 432 kts | 290° |
| 2026-02-20 06:48 | 42.81776 | 25.79081 | 33566 ft | 431 kts | 290° |
| 2026-02-20 06:48 | 42.83170 | 25.75479 | 33905 ft | 429 kts | 290° |
| 2026-02-20 06:48 | 42.84557 | 25.71891 | 34228 ft | 427 kts | 290° |
| 2026-02-20 06:48 | 42.85937 | 25.68315 | 34518 ft | 426 kts | 290° |
| 2026-02-20 06:49 | 42.87315 | 25.64743 | 34821 ft | 426 kts | 290° |
| 2026-02-20 06:49 | 42.88693 | 25.61165 | 35084 ft | 425 kts | 290° |
| 2026-02-20 06:49 | 42.90065 | 25.57597 | 35343 ft | 425 kts | 290° |
| 2026-02-20 06:49 | 42.91435 | 25.54031 | 35610 ft | 424 kts | 290° |
| 2026-02-20 06:50 | 42.92802 | 25.50469 | 35865 ft | 423 kts | 290° |
| 2026-02-20 06:50 | 42.94165 | 25.46910 | 35974 ft | 424 kts | 290° |
| 2026-02-20 06:50 | 42.95531 | 25.43341 | 35941 ft | 423 kts | 290° |
| 2026-02-20 06:51 | 42.98243 | 25.36239 | 35947 ft | 422 kts | 290° |
| 2026-02-20 06:51 | 43.00957 | 25.29115 | 35935 ft | 422 kts | 290° |
| 2026-02-20 06:52 | 43.03663 | 25.21996 | 35926 ft | 422 kts | 290° |
| 2026-02-20 06:52 | 43.06367 | 25.14864 | 35927 ft | 422 kts | 289° |
| 2026-02-20 06:53 | 43.09063 | 25.07737 | 35969 ft | 422 kts | 289° |
| 2026-02-20 06:53 | 43.11757 | 25.00602 | 35918 ft | 422 kts | 289° |
| 2026-02-20 06:54 | 43.14132 | 24.93335 | 35931 ft | 418 kts | 285° |
| 2026-02-20 06:54 | 43.16438 | 24.86027 | 35927 ft | 418 kts | 286° |
| 2026-02-20 06:55 | 43.18753 | 24.78719 | 35970 ft | 418 kts | 286° |
| 2026-02-20 06:55 | 43.21060 | 24.71428 | 35924 ft | 416 kts | 285° |
| 2026-02-20 06:56 | 43.23358 | 24.64142 | 35929 ft | 416 kts | 285° |
| 2026-02-20 06:56 | 43.25653 | 24.56850 | 35923 ft | 417 kts | 286° |
| 2026-02-20 06:57 | 43.27946 | 24.49537 | 35932 ft | 417 kts | 286° |
| 2026-02-20 06:57 | 43.30238 | 24.42211 | 35938 ft | 419 kts | 286° |
| 2026-02-20 06:58 | 43.32532 | 24.34857 | 35936 ft | 419 kts | 286° |
| 2026-02-20 06:58 | 43.34824 | 24.27490 | 35933 ft | 419 kts | 286° |
| 2026-02-20 06:59 | 43.37110 | 24.20120 | 35933 ft | 419 kts | 286° |
| 2026-02-20 06:59 | 43.39397 | 24.12727 | 35945 ft | 422 kts | 286° |
| 2026-02-20 07:00 | 43.41695 | 24.05278 | 35933 ft | 424 kts | 286° |
| 2026-02-20 07:00 | 43.43992 | 23.97809 | 35940 ft | 424 kts | 286° |
| 2026-02-20 07:01 | 43.46373 | 23.90044 | 35932 ft | 424 kts | 286° |
| 2026-02-20 07:01 | 43.50968 | 23.75083 | 35936 ft | 425 kts | 286° |
| 2026-02-20 07:02 | 43.55503 | 23.60053 | 35940 ft | 424 kts | 285° |
| 2026-02-20 07:02 | 43.60027 | 23.45049 | 35947 ft | 423 kts | 285° |
| 2026-02-20 07:03 | 43.64547 | 23.30056 | 35937 ft | 423 kts | 285° |
| 2026-02-20 07:03 | 43.68991 | 23.15038 | 35938 ft | 423 kts | 285° |
| 2026-02-20 07:04 | 43.73496 | 22.99986 | 35929 ft | 424 kts | 285° |
| 2026-02-20 07:04 | 43.77240 | 22.87209 | 35932 ft | 425 kts | 284° |
| 2026-02-20 07:05 | 43.81071 | 22.74152 | 35923 ft | 425 kts | 284° |
| 2026-02-20 07:05 | 43.85270 | 22.59800 | 35920 ft | 426 kts | 284° |
| 2026-02-20 07:06 | 43.87479 | 22.52181 | 35919 ft | 427 kts | 284° |
| 2026-02-20 07:06 | 43.89662 | 22.44649 | 35917 ft | 427 kts | 284° |
| 2026-02-20 07:07 | 43.92124 | 22.37124 | 35915 ft | 435 kts | 293° |
| 2026-02-20 07:07 | 43.95264 | 22.29687 | 35916 ft | 434 kts | 292° |
| 2026-02-20 07:08 | 44.01377 | 22.15231 | 35913 ft | 434 kts | 292° |
| 2026-02-20 07:08 | 44.07414 | 22.00730 | 35912 ft | 433 kts | 292° |
| 2026-02-20 07:09 | 44.12766 | 21.87976 | 35904 ft | 437 kts | 292° |
| 2026-02-20 07:09 | 44.16564 | 21.78856 | 35893 ft | 437 kts | 292° |
| 2026-02-20 07:10 | 44.22055 | 21.65613 | 35862 ft | 439 kts | 292° |
| 2026-02-20 07:10 | 44.25906 | 21.56289 | 35859 ft | 444 kts | 292° |
| 2026-02-20 07:11 | 44.29671 | 21.47114 | 35844 ft | 444 kts | 292° |
| 2026-02-20 07:11 | 44.33056 | 21.38874 | 35855 ft | 443 kts | 292° |
| 2026-02-20 07:12 | 44.36730 | 21.29889 | 35816 ft | 448 kts | 292° |
| 2026-02-20 07:12 | 44.42891 | 21.14753 | 35809 ft | 448 kts | 292° |
| 2026-02-20 07:13 | 44.49044 | 20.99555 | 35813 ft | 450 kts | 292° |
| 2026-02-20 07:13 | 44.55232 | 20.84237 | 35801 ft | 452 kts | 292° |
| 2026-02-20 07:14 | 44.61380 | 20.68853 | 35807 ft | 453 kts | 292° |
| 2026-02-20 07:14 | 44.66737 | 20.55406 | 35797 ft | 453 kts | 293° |
| 2026-02-20 07:15 | 44.71957 | 20.42262 | 35812 ft | 453 kts | 292° |
| 2026-02-20 07:15 | 44.77057 | 20.29364 | 35808 ft | 454 kts | 292° |
| 2026-02-20 07:16 | 44.83157 | 20.13807 | 35814 ft | 454 kts | 293° |
| 2026-02-20 07:16 | 44.89257 | 19.98158 | 35804 ft | 457 kts | 294° |
| 2026-02-20 07:17 | 44.94298 | 19.85231 | 35795 ft | 456 kts | 293° |
| 2026-02-20 07:17 | 44.97347 | 19.77361 | 35777 ft | 458 kts | 294° |
| 2026-02-20 07:18 | 45.00405 | 19.69442 | 35779 ft | 459 kts | 294° |
| 2026-02-20 07:18 | 45.03455 | 19.61520 | 35777 ft | 459 kts | 294° |
| 2026-02-20 07:19 | 45.06498 | 19.53594 | 35774 ft | 459 kts | 294° |
| 2026-02-20 07:19 | 45.09541 | 19.45645 | 35769 ft | 460 kts | 294° |
| 2026-02-20 07:20 | 45.12583 | 19.37675 | 35777 ft | 460 kts | 294° |
| 2026-02-20 07:20 | 45.15622 | 19.29692 | 35767 ft | 460 kts | 294° |
| 2026-02-20 07:21 | 45.18654 | 19.21701 | 35768 ft | 461 kts | 294° |
| 2026-02-20 07:21 | 45.21682 | 19.13699 | 35772 ft | 460 kts | 294° |
| 2026-02-20 07:22 | 45.24703 | 19.05693 | 35770 ft | 460 kts | 294° |
| 2026-02-20 07:22 | 45.27720 | 18.97672 | 35771 ft | 460 kts | 294° |
| 2026-02-20 07:23 | 45.30731 | 18.89647 | 35775 ft | 460 kts | 294° |
| 2026-02-20 07:23 | 45.33738 | 18.81608 | 35777 ft | 461 kts | 294° |
| 2026-02-20 07:24 | 45.36736 | 18.73567 | 35759 ft | 461 kts | 294° |
| 2026-02-20 07:24 | 45.39736 | 18.65497 | 35759 ft | 461 kts | 294° |
| 2026-02-20 07:25 | 45.42730 | 18.57420 | 35763 ft | 461 kts | 294° |
| 2026-02-20 07:25 | 45.45214 | 18.50704 | 35768 ft | 462 kts | 295° |
| 2026-02-20 07:27 | 45.47961 | 18.43260 | 35768 ft | 462 kts | 294° |
| 2026-02-20 07:28 | 45.50949 | 18.35142 | 35765 ft | 462 kts | 294° |
| 2026-02-20 07:28 | 45.53931 | 18.27017 | 35765 ft | 462 kts | 294° |
| 2026-02-20 07:29 | 45.56909 | 18.18882 | 35774 ft | 463 kts | 295° |
| 2026-02-20 07:29 | 45.59857 | 18.10781 | 35763 ft | 462 kts | 293° |
| 2026-02-20 07:30 | 45.62378 | 18.02361 | 35773 ft | 462 kts | 290° |
| 2026-02-20 07:30 | 45.64926 | 17.93939 | 35777 ft | 462 kts | 291° |
| 2026-02-20 07:31 | 45.67484 | 17.85526 | 35791 ft | 462 kts | 291° |
| 2026-02-20 07:31 | 45.70036 | 17.77101 | 35777 ft | 462 kts | 291° |
| 2026-02-20 07:32 | 45.72585 | 17.68659 | 35780 ft | 462 kts | 291° |
| 2026-02-20 07:32 | 45.75123 | 17.60222 | 35780 ft | 462 kts | 291° |
| 2026-02-20 07:33 | 45.77659 | 17.51767 | 35795 ft | 462 kts | 291° |
| 2026-02-20 07:33 | 45.80189 | 17.43301 | 35788 ft | 462 kts | 291° |
| 2026-02-20 07:34 | 45.82713 | 17.34826 | 35793 ft | 462 kts | 291° |
| 2026-02-20 07:34 | 45.85158 | 17.26591 | 35795 ft | 462 kts | 291° |
| 2026-02-20 07:35 | 45.85663 | 17.24884 | 35803 ft | 462 kts | 291° |
| 2026-02-20 07:35 | 45.88174 | 17.16391 | 35806 ft | 462 kts | 290° |
| 2026-02-20 07:36 | 45.90677 | 17.07898 | 35813 ft | 462 kts | 290° |
| 2026-02-20 07:36 | 45.93172 | 16.99400 | 35810 ft | 462 kts | 291° |
| 2026-02-20 07:37 | 45.95661 | 16.90895 | 35816 ft | 462 kts | 290° |
| 2026-02-20 07:37 | 45.98146 | 16.82376 | 35842 ft | 462 kts | 291° |
| 2026-02-20 07:38 | 46.00608 | 16.73905 | 35833 ft | 458 kts | 291° |
| 2026-02-20 07:38 | 46.03065 | 16.65422 | 35842 ft | 459 kts | 291° |
| 2026-02-20 07:39 | 46.05517 | 16.56925 | 35849 ft | 460 kts | 290° |
| 2026-02-20 07:39 | 46.07960 | 16.48436 | 35860 ft | 459 kts | 291° |
| 2026-02-20 07:40 | 46.10388 | 16.39962 | 35864 ft | 457 kts | 291° |
| 2026-02-20 07:40 | 46.12811 | 16.31482 | 35864 ft | 458 kts | 291° |
| 2026-02-20 07:41 | 46.15229 | 16.22987 | 35875 ft | 459 kts | 291° |
| 2026-02-20 07:41 | 46.17642 | 16.14482 | 35872 ft | 458 kts | 291° |
| 2026-02-20 07:42 | 46.20041 | 16.05999 | 35882 ft | 455 kts | 292° |
| 2026-02-20 07:42 | 46.22430 | 15.97524 | 35889 ft | 457 kts | 292° |
| 2026-02-20 07:43 | 46.24821 | 15.89018 | 35884 ft | 458 kts | 292° |
| 2026-02-20 07:43 | 46.28896 | 15.76602 | 35899 ft | 457 kts | 297° |
| 2026-02-20 07:44 | 46.31828 | 15.68454 | 35905 ft | 457 kts | 297° |
| 2026-02-20 07:44 | 46.34692 | 15.60399 | 35898 ft | 457 kts | 297° |
| 2026-02-20 07:45 | 46.38724 | 15.48863 | 35913 ft | 457 kts | 296° |
| 2026-02-20 07:45 | 46.44547 | 15.32449 | 35923 ft | 456 kts | 297° |
| 2026-02-20 07:46 | 46.48970 | 15.19823 | 35908 ft | 454 kts | 297° |
| 2026-02-20 07:46 | 46.53675 | 15.06342 | 35909 ft | 455 kts | 297° |
| 2026-02-20 07:47 | 46.58800 | 14.91506 | 35901 ft | 454 kts | 296° |
| 2026-02-20 07:47 | 46.64417 | 14.75097 | 35897 ft | 452 kts | 297° |
| 2026-02-20 07:48 | 46.70048 | 14.58698 | 35921 ft | 455 kts | 297° |
| 2026-02-20 07:48 | 46.75695 | 14.42178 | 35939 ft | 455 kts | 298° |
| 2026-02-20 07:49 | 46.81290 | 14.25661 | 35940 ft | 452 kts | 297° |
| 2026-02-20 07:49 | 46.86796 | 14.09153 | 35955 ft | 452 kts | 297° |
| 2026-02-20 07:50 | 46.91771 | 13.94310 | 35965 ft | 448 kts | 298° |
| 2026-02-20 07:50 | 46.95412 | 13.83326 | 35981 ft | 446 kts | 298° |
| 2026-02-20 07:51 | 47.00804 | 13.66995 | 36003 ft | 445 kts | 297° |
| 2026-02-20 07:51 | 47.05231 | 13.53556 | 35995 ft | 442 kts | 297° |
| 2026-02-20 07:52 | 47.07885 | 13.45424 | 36000 ft | 439 kts | 298° |
| 2026-02-20 07:52 | 47.10524 | 13.37332 | 36046 ft | 441 kts | 298° |
| 2026-02-20 07:53 | 47.15414 | 13.22244 | 36038 ft | 440 kts | 298° |
| 2026-02-20 07:53 | 47.19942 | 13.08236 | 36065 ft | 443 kts | 298° |
| 2026-02-20 07:54 | 47.24643 | 12.93649 | 36084 ft | 442 kts | 297° |
| 2026-02-20 07:54 | 47.28401 | 12.81820 | 36099 ft | 441 kts | 298° |
| 2026-02-20 07:55 | 47.33587 | 12.65473 | 36115 ft | 440 kts | 298° |
| 2026-02-20 07:55 | 47.36548 | 12.56124 | 36122 ft | 440 kts | 298° |
| 2026-02-20 07:56 | 47.40320 | 12.44127 | 36128 ft | 440 kts | 298° |
| 2026-02-20 07:56 | 47.42455 | 12.37321 | 36134 ft | 440 kts | 298° |
| 2026-02-20 07:57 | 47.45022 | 12.29117 | 36132 ft | 439 kts | 298° |
| 2026-02-20 07:57 | 47.47579 | 12.20921 | 36136 ft | 439 kts | 298° |
| 2026-02-20 07:58 | 47.50131 | 12.12710 | 36141 ft | 439 kts | 298° |
| 2026-02-20 07:58 | 47.52680 | 12.04486 | 36143 ft | 440 kts | 297° |
| 2026-02-20 07:59 | 47.54414 | 11.95802 | 36157 ft | 446 kts | 285° |
| 2026-02-20 07:59 | 47.55637 | 11.86812 | 36144 ft | 445 kts | 285° |
| 2026-02-20 08:00 | 47.56825 | 11.77801 | 36137 ft | 446 kts | 285° |
| 2026-02-20 08:00 | 47.57999 | 11.68813 | 36154 ft | 444 kts | 285° |
| 2026-02-20 08:01 | 47.59164 | 11.59830 | 36150 ft | 444 kts | 285° |
| 2026-02-20 08:01 | 47.60321 | 11.50848 | 36151 ft | 444 kts | 285° |
| 2026-02-20 08:02 | 47.61472 | 11.41858 | 36138 ft | 444 kts | 285° |
| 2026-02-20 08:02 | 47.62617 | 11.32859 | 36141 ft | 444 kts | 286° |
| 2026-02-20 08:03 | 47.63754 | 11.23853 | 36126 ft | 444 kts | 286° |
| 2026-02-20 08:03 | 47.64885 | 11.14840 | 36130 ft | 444 kts | 286° |
| 2026-02-20 08:04 | 47.66008 | 11.05829 | 36121 ft | 445 kts | 285° |
| 2026-02-20 08:04 | 47.67125 | 10.96810 | 36082 ft | 444 kts | 285° |
| 2026-02-20 08:05 | 47.68234 | 10.87792 | 36111 ft | 444 kts | 287° |
| 2026-02-20 08:05 | 47.69335 | 10.78776 | 36112 ft | 444 kts | 286° |
| 2026-02-20 08:06 | 47.70429 | 10.69759 | 36109 ft | 444 kts | 286° |
| 2026-02-20 08:06 | 47.71517 | 10.60733 | 36117 ft | 444 kts | 286° |
| 2026-02-20 08:07 | 47.72053 | 10.56251 | 35833 ft | 437 kts | 287° |
| 2026-02-20 08:07 | 47.72584 | 10.51808 | 35092 ft | 438 kts | 288° |
| 2026-02-20 08:07 | 47.73118 | 10.47351 | 34296 ft | 441 kts | 288° |
| 2026-02-20 08:07 | 47.73652 | 10.42852 | 33400 ft | 443 kts | 288° |
| 2026-02-20 08:08 | 47.74184 | 10.38352 | 32587 ft | 443 kts | 287° |
| 2026-02-20 08:08 | 47.74554 | 10.33791 | 31789 ft | 450 kts | 276° |
| 2026-02-20 08:08 | 47.74431 | 10.29119 | 30988 ft | 453 kts | 273° |
| 2026-02-20 08:08 | 47.74340 | 10.24439 | 30145 ft | 454 kts | 272° |
| 2026-02-20 08:09 | 47.74239 | 10.19754 | 29124 ft | 455 kts | 271° |
| 2026-02-20 08:09 | 47.74130 | 10.15050 | 28191 ft | 455 kts | 271° |
| 2026-02-20 08:09 | 47.74020 | 10.10349 | 27229 ft | 457 kts | 271° |
| 2026-02-20 08:09 | 47.73907 | 10.05648 | 26523 ft | 453 kts | 271° |
| 2026-02-20 08:10 | 47.73794 | 10.00992 | 25818 ft | 454 kts | 271° |
| 2026-02-20 08:10 | 47.73678 | 9.96282 | 25048 ft | 456 kts | 270° |
| 2026-02-20 08:10 | 47.73561 | 9.91580 | 24290 ft | 455 kts | 269° |
| 2026-02-20 08:10 | 47.73442 | 9.86913 | 23673 ft | 450 kts | 269° |
| 2026-02-20 08:11 | 47.73324 | 9.82284 | 22880 ft | 447 kts | 269° |
| 2026-02-20 08:11 | 47.73205 | 9.77701 | 22171 ft | 442 kts | 269° |
| 2026-02-20 08:11 | 47.73085 | 9.73152 | 21509 ft | 438 kts | 269° |
| 2026-02-20 08:11 | 47.72964 | 9.68656 | 20826 ft | 435 kts | 270° |
| 2026-02-20 08:12 | 47.72840 | 9.64170 | 20070 ft | 434 kts | 270° |
| 2026-02-20 08:12 | 47.72715 | 9.59714 | 19441 ft | 431 kts | 270° |
| 2026-02-20 08:12 | 47.72591 | 9.55339 | 18784 ft | 428 kts | 270° |
| 2026-02-20 08:12 | 47.72462 | 9.50857 | 18046 ft | 428 kts | 270° |
| 2026-02-20 08:13 | 47.72333 | 9.46466 | 17399 ft | 424 kts | 270° |
| 2026-02-20 08:13 | 47.72283 | 9.42175 | 16656 ft | 420 kts | 276° |
| 2026-02-20 08:13 | 47.72484 | 9.37868 | 16045 ft | 415 kts | 276° |
| 2026-02-20 08:13 | 47.72657 | 9.33613 | 15466 ft | 411 kts | 276° |
| 2026-02-20 08:14 | 47.72812 | 9.29385 | 14847 ft | 409 kts | 276° |
| 2026-02-20 08:14 | 47.72957 | 9.25175 | 14230 ft | 406 kts | 275° |
| 2026-02-20 08:14 | 47.73097 | 9.20997 | 13586 ft | 404 kts | 275° |
| 2026-02-20 08:14 | 47.73233 | 9.16841 | 12985 ft | 401 kts | 275° |
| 2026-02-20 08:15 | 47.73366 | 9.12739 | 12432 ft | 396 kts | 275° |
| 2026-02-20 08:15 | 47.73496 | 9.08691 | 12038 ft | 387 kts | 275° |
| 2026-02-20 08:15 | 47.73621 | 9.04759 | 11838 ft | 375 kts | 275° |
| 2026-02-20 08:15 | 47.73740 | 9.00957 | 11656 ft | 363 kts | 275° |
| 2026-02-20 08:16 | 47.73854 | 8.97267 | 11466 ft | 352 kts | 275° |
| 2026-02-20 08:16 | 47.73964 | 8.93695 | 11279 ft | 341 kts | 275° |
| 2026-02-20 08:16 | 47.74070 | 8.90227 | 11110 ft | 331 kts | 275° |
| 2026-02-20 08:16 | 47.74171 | 8.86862 | 10949 ft | 321 kts | 275° |
| 2026-02-20 08:17 | 47.74268 | 8.83637 | 10778 ft | 303 kts | 275° |
| 2026-02-20 08:17 | 47.74357 | 8.80608 | 10650 ft | 284 kts | 275° |
| 2026-02-20 08:17 | 47.74440 | 8.77764 | 10520 ft | 267 kts | 275° |
| 2026-02-20 08:17 | 47.74518 | 8.75088 | 10399 ft | 254 kts | 275° |
| 2026-02-20 08:18 | 47.74593 | 8.72469 | 10306 ft | 262 kts | 275° |
| 2026-02-20 08:18 | 47.74673 | 8.69690 | 10139 ft | 269 kts | 275° |
| 2026-02-20 08:18 | 47.74751 | 8.66929 | 9825 ft | 272 kts | 275° |
| 2026-02-20 08:18 | 47.74831 | 8.64085 | 9500 ft | 271 kts | 275° |
| 2026-02-20 08:19 | 47.74907 | 8.61334 | 9196 ft | 269 kts | 275° |
| 2026-02-20 08:19 | 47.74984 | 8.58576 | 8918 ft | 266 kts | 275° |
| 2026-02-20 08:19 | 47.75058 | 8.55848 | 8643 ft | 263 kts | 275° |
| 2026-02-20 08:19 | 47.75131 | 8.53149 | 8371 ft | 260 kts | 275° |
| 2026-02-20 08:20 | 47.75204 | 8.50462 | 8086 ft | 259 kts | 274° |
| 2026-02-20 08:20 | 47.75275 | 8.47801 | 7809 ft | 256 kts | 274° |
| 2026-02-20 08:20 | 47.75345 | 8.45169 | 7545 ft | 254 kts | 274° |
| 2026-02-20 08:20 | 47.75413 | 8.42564 | 7249 ft | 251 kts | 274° |
| 2026-02-20 08:21 | 47.75482 | 8.39966 | 6921 ft | 251 kts | 274° |
| 2026-02-20 08:21 | 47.75438 | 8.37374 | 6620 ft | 252 kts | 259° |
| 2026-02-20 08:21 | 47.74676 | 8.35054 | 6388 ft | 252 kts | 234° |
| 2026-02-20 08:21 | 47.73531 | 8.33128 | 6248 ft | 244 kts | 231° |
| 2026-02-20 08:22 | 47.72418 | 8.31287 | 6137 ft | 235 kts | 231° |
| 2026-02-20 08:22 | 47.71340 | 8.29528 | 6036 ft | 226 kts | 231° |
| 2026-02-20 08:22 | 47.70198 | 8.27960 | 5914 ft | 226 kts | 213° |
| 2026-02-20 08:22 | 47.68687 | 8.27277 | 5597 ft | 232 kts | 184° |
| 2026-02-20 08:23 | 47.67125 | 8.27773 | 5375 ft | 233 kts | 154° |
| 2026-02-20 08:23 | 47.65864 | 8.29266 | 5063 ft | 233 kts | 134° |
| 2026-02-20 08:23 | 47.64723 | 8.30975 | 4733 ft | 234 kts | 136° |
| 2026-02-20 08:23 | 47.63554 | 8.32636 | 4443 ft | 229 kts | 137° |
| 2026-02-20 08:24 | 47.62410 | 8.34213 | 4222 ft | 220 kts | 138° |
| 2026-02-20 08:24 | 47.61310 | 8.35722 | 4043 ft | 210 kts | 138° |
| 2026-02-20 08:24 | 47.60268 | 8.37146 | 3943 ft | 195 kts | 138° |
| 2026-02-20 08:24 | 47.59301 | 8.38471 | 3963 ft | 187 kts | 138° |
| 2026-02-20 08:25 | 47.58351 | 8.39769 | 3956 ft | 186 kts | 138° |
| 2026-02-20 08:25 | 47.57400 | 8.41068 | 3897 ft | 186 kts | 138° |
| 2026-02-20 08:25 | 47.56455 | 8.42361 | 3657 ft | 183 kts | 139° |
| 2026-02-20 08:25 | 47.55542 | 8.43610 | 3426 ft | 175 kts | 139° |
| 2026-02-20 08:26 | 47.54669 | 8.44803 | 3226 ft | 171 kts | 139° |
| 2026-02-20 08:26 | 47.53809 | 8.45977 | 3004 ft | 163 kts | 139° |
| 2026-02-20 08:26 | 47.52997 | 8.47082 | 2835 ft | 154 kts | 139° |
| 2026-02-20 08:26 | 47.52224 | 8.48139 | 2597 ft | 149 kts | 139° |
| 2026-02-20 08:27 | 47.51476 | 8.49161 | 2368 ft | 145 kts | 138° |
| 2026-02-20 08:27 | 47.50738 | 8.50168 | 2137 ft | 144 kts | 137° |
| 2026-02-20 08:27 | 47.50003 | 8.51170 | 1937 ft | 144 kts | 137° |
| 2026-02-20 08:27 | 47.49278 | 8.52158 | 1741 ft | 144 kts | 137° |
| 2026-02-20 08:28 | 47.48550 | 8.53166 | 1539 ft | 143 kts | 137° |
| 2026-02-20 08:28 | 47.47819 | 8.54158 | 1413 ft | 143 kts | 137° |
| 2026-02-20 08:28 | 47.47168 | 8.55037 | 1389 ft | 100 kts | 137° |
| 2026-02-20 08:28 | 47.46784 | 8.55545 | 1396 ft | 48 kts | 144° |
| 2026-02-20 08:29 | 47.46554 | 8.55692 | 1398 ft | 29 kts | 168° |
| 2026-02-20 08:29 | 47.46410 | 8.55742 | 1407 ft | 18 kts | 162° |
| 2026-02-20 08:29 | 47.46319 | 8.55847 | 1407 ft | 16 kts | 138° |
| 2026-02-20 08:29 | 47.46246 | 8.55865 | 1405 ft | 1 kts | 226° |
| 2026-02-20 08:30 | 47.46236 | 8.55846 | 1412 ft | 5 kts | 238° |
| 2026-02-20 08:30 | 47.46238 | 8.55754 | 1412 ft | 14 kts | 276° |
| 2026-02-20 08:30 | 47.46251 | 8.55546 | 1405 ft | 26 kts | 275° |
| 2026-02-20 08:30 | 47.46274 | 8.55233 | 1396 ft | 34 kts | 274° |
| 2026-02-20 08:31 | 47.46268 | 8.54964 | 1399 ft | 21 kts | 227° |
| 2026-02-20 08:31 | 47.46181 | 8.54975 | 1396 ft | 17 kts | 154° |
| 2026-02-20 08:31 | 47.46115 | 8.55038 | 1397 ft | 3 kts | 99° |
| 2026-02-20 08:31 | 47.46123 | 8.55071 | 1401 ft | 6 kts | 61° |
| 2026-02-20 08:32 | 47.46137 | 8.55113 | 1401 ft | 0 kts | 65° |